Flight Track Log - Related Links

Times and Time Zones

All times are in EDT time to prevent confusion due to time zone crossing. See the SWA104 flight status page for this flight to view local times or setup timezone preferences in your user account.

Time Position Orientation Groundspeed Altitude Reporting Facility
EDT Latitude Longitude Course Direction KTS MPH feet Rate Location/Type
Sun 09:37:44 PM 42.9167 -71.4167 202° Southwest 141 162 1,400  Level KA90
Sun 09:38:26 PM 42.9000 -71.4500 236° Southwest 185 213 3,000 2,060 Climbing KA90
Sun 09:38:51 PM 42.9006 -71.4622 274° West 199 229 3,700 3,318 Climbing Boston Center
Sun 09:39:51 PM 42.9569 -71.4756 350° North 207 238 7,700 3,900 Climbing Boston Center
Sun 09:40:51 PM 42.9872 -71.3700 69° East 199 229 11,500 3,669 Climbing Boston Center
Sun 09:41:52 PM 43.0256 -71.2444 67° East 289 333 15,100 3,300 Climbing Boston Center
Sun 09:42:51 PM 43.0597 -71.1186 70° East 368 423 18,100 2,824 Climbing Boston Center
Sun 09:43:00 PM 42.9699 -70.8741 202° Southwest  Level FlightAware Approximate
Sun 09:43:51 PM 43.0661 -70.9650 87° East 400 460 20,700  Level Boston Center
Sun 09:44:51 PM 42.9672 -70.8881 150° Southeast 341 392 24,000 3,200 Climbing Boston Center
Sun 09:45:51 PM 42.8636 -70.9389 200° South 281 323 27,100 2,850 Climbing Boston Center
Sun 09:46:51 PM 42.7581 -70.9922 200° South 340 391 29,700 2,650 Climbing Boston Center
Sun 09:47:51 PM 42.6586 -71.0397 199° South 365 420 32,400 1,955 Climbing Boston Center
Sun 09:49:03 PM 42.5653 -71.0869 200° South 370 426 34,000 727 Climbing Boston Center
Sun 09:50:03 PM 42.4767 -71.1706 215° Southwest 355 409 34,000  Level Boston Center
Sun 09:51:03 PM 42.4300 -71.2783 240° Southwest 324 373 34,000  Level Boston Center
Sun 09:52:03 PM 42.3728 -71.3975 237° Southwest 341 392 34,000  Level Boston Center
Sun 09:53:03 PM 42.3214 -71.5022 236° Southwest 341 392 34,000  Level Boston Center
Sun 09:54:03 PM 42.2722 -71.5956 235° Southwest 341 392 34,000  Level Boston Center
Sun 09:55:03 PM 42.2208 -71.7028 237° Southwest 341 392 34,000  Level Boston Center
Sun 09:56:03 PM 42.1694 -71.8069 236° Southwest 341 392 34,000  Level Boston Center
Sun 09:57:03 PM 42.1158 -71.9139 236° Southwest 346 398 34,000  Level Boston Center
Sun 09:58:03 PM 42.0642 -72.0206 237° Southwest 346 398 34,000  Level Boston Center
Sun 09:59:03 PM 42.0081 -72.1356 237° Southwest 351 404 34,000  Level Boston Center
Sun 10:00:03 PM 41.9564 -72.2419 237° Southwest 351 404 34,000  Level Boston Center
Sun 10:01:03 PM 41.9022 -72.3481 236° Southwest 351 404 34,000  Level Boston Center
Sun 10:02:03 PM 41.8503 -72.4542 237° Southwest 351 404 34,000  Level Boston Center
Sun 10:03:03 PM 41.7981 -72.5625 237° Southwest 351 404 34,000  Level Boston Center
Sun 10:04:03 PM 41.7458 -72.6683 237° Southwest 351 404 34,000  Level Boston Center
Sun 10:05:03 PM 41.6892 -72.7736 234° Southwest 351 404 34,000  Level Boston Center
Sun 10:06:03 PM 41.6367 -72.8789 236° Southwest 351 404 34,000  Level Boston Center
Sun 10:07:03 PM 41.5842 -72.9842 236° Southwest 351 404 34,000  Level Boston Center
Sun 10:09:28 PM 41.4608 -73.2322 236° Southwest 329 379 34,000  Level New York Center
Sun 10:10:29 PM 41.4086 -73.3356 236° Southwest 339 390 34,000  Level New York Center
Sun 10:11:27 PM 41.3542 -73.4411 236° Southwest 345 397 34,000  Level New York Center
Sun 10:12:28 PM 41.3017 -73.5494 237° Southwest 345 397 34,000  Level New York Center
Sun 10:13:28 PM 41.2431 -73.6492 232° Southwest 345 397 34,000  Level New York Center
Sun 10:14:29 PM 41.1844 -73.7486 232° Southwest 350 403 34,000  Level New York Center
Sun 10:15:29 PM 41.1236 -73.8506 232° Southwest 350 403 34,000  Level New York Center
Sun 10:16:30 PM 41.0647 -73.9497 232° Southwest 356 410 34,000  Level New York Center
Sun 10:17:27 PM 41.0036 -74.0514 231° Southwest 356 410 34,000  Level New York Center
Sun 10:18:28 PM 40.9447 -74.1472 231° Southwest 356 410 34,000  Level New York Center
Sun 10:19:28 PM 40.8833 -74.2458 231° Southwest 356 410 34,000 -492 Level New York Center
Sun 10:20:30 PM 40.8222 -74.3442 231° Southwest 356 410 33,000 -1,600 Descending New York Center
Sun 10:21:28 PM 40.7650 -74.4397 232° Southwest 356 410 30,800 -2,168 Descending New York Center
Sun 10:22:29 PM 40.7122 -74.5300 232° Southwest 337 388 28,700 -1,400 Descending New York Center
Sun 10:23:28 PM 40.6572 -74.6228 232° Southwest 331 381 28,000 -353 Descending New York Center
Sun 10:24:28 PM 40.5978 -74.7178 231° Southwest 331 381 28,000 -250 Level New York Center
Sun 10:25:28 PM 40.5364 -74.8044 227° Southwest 336 387 27,500 -248 Descending New York Center
Sun 10:26:29 PM 40.4750 -74.8961 229° Southwest 336 387 27,500 -439 Level New York Center
Sun 10:27:31 PM 40.4136 -74.9825 227° Southwest 336 387 26,600 -958 Descending New York Center
Sun 10:28:28 PM 40.3497 -75.0739 227° Southwest 341 392 25,600 -1,034 Descending New York Center
Sun 10:29:27 PM 40.2883 -75.1600 227° Southwest 336 387 24,600 -1,000 Descending New York Center
Sun 10:30:28 PM 40.2267 -75.2483 228° Southwest 330 380 23,600 -1,377 Descending New York Center
Sun 10:31:29 PM 40.1672 -75.3289 226° Southwest 330 380 21,800 -1,765 Descending New York Center
Sun 10:32:27 PM 40.1119 -75.4067 227° Southwest 313 360 20,100 -1,664 Descending New York Center
Sun 10:33:28 PM 40.0506 -75.4867 225° Southwest 306 352 18,500 -1,131 Descending New York Center
Sun 10:34:29 PM 39.9931 -75.5667 227° Southwest 306 352 17,800 -504 Descending New York Center
Sun 10:35:27 PM 39.9400 -75.6389 226° Southwest 306 352 17,500 -706 Descending New York Center
Sun 10:36:28 PM 39.8817 -75.7403 233° Southwest 306 352 16,400 -984 Descending New York Center
Sun 10:37:29 PM 39.8364 -75.8236 235° Southwest 317 365 15,500 -958 Descending New York Center
Sun 10:38:27 PM 39.7908 -75.9150 237° Southwest 317 365 14,500 -1,127 Descending New York Center
Sun 10:40:30 PM 39.6833 -76.1167 235° Southwest 294 338 12,100 -847 Descending Potomac TRACON
Sun 10:41:24 PM 39.6500 -76.1833 237° Southwest 279 321 12,000 -52 Descending Potomac TRACON
Sun 10:42:25 PM 39.6167 -76.2833 247° West 274 315 12,000 -678 Level Potomac TRACON
Sun 10:43:19 PM 39.6000 -76.3667 255° West 283 326 10,700 -1,579 Descending Potomac TRACON
Sun 10:44:19 PM 39.5667 -76.4667 247° West 282 325 9,000 -1,701 Descending Potomac TRACON
Sun 10:45:26 PM 39.5333 -76.5667 247° West 279 321 7,100 -1,701 Descending Potomac TRACON
Sun 10:46:26 PM 39.4833 -76.6167 218° Southwest 270 311 5,400 -1,579 Descending Potomac TRACON
Sun 10:47:20 PM 39.4167 -76.6667 210° Southwest 266 306 4,100 -778 Descending Potomac TRACON
Sun 10:48:14 PM 39.3667 -76.7000 207° Southwest 230 265 4,000 -446 Descending Potomac TRACON
Sun 10:49:21 PM 39.3167 -76.7500 218° Southwest 221 254 3,200 -744 Descending Potomac TRACON
Sun 10:50:15 PM 39.2667 -76.7833 207° Southwest 210 242 2,500 -446 Descending Potomac TRACON
Sun 10:51:22 PM 39.2167 -76.8000 194° South 165 190 2,300 -406 Descending Potomac TRACON
Sun 10:52:28 PM 39.1833 -76.7667 142° Southeast 134 154 1,600 -700 Descending Potomac TRACON
Sun 10:53:22 PM 39.1833 -76.7333 90° East 114 131 900 -778 Descending Potomac TRACON
Sun 10:55:00 PM 39.1667 -76.6667 270° West  Level FlightAware Approximate
Sun 11:02:00 PM 39.1754 -76.6683 270° West  Level Estimated
Sun 11:03:00 PM 39.1754 -76.6683 270° West  Level Estimated
Sun 11:04:00 PM 39.1754 -76.6683 270° West  Level Estimated
Sun 11:05:00 PM 39.1754 -76.6683 270° West  Level Estimated

Login

Don't have an account? Register now (free) for customized features, flight alerts, and more!